sensor_id;sensor_type;location;lat;lon;timestamp;P1;durP1;ratioP1;P2;durP2;ratioP2
73776;SDS011;62088;50.240;2.696;2023-02-04T00:00:14;24.90;;;11.95;;
73776;SDS011;62088;50.240;2.696;2023-02-04T00:02:43;29.40;;;13.02;;
73776;SDS011;62088;50.240;2.696;2023-02-04T00:05:11;33.60;;;13.30;;
73776;SDS011;62088;50.240;2.696;2023-02-04T00:07:38;27.00;;;13.63;;
73776;SDS011;62088;50.240;2.696;2023-02-04T00:10:07;33.08;;;14.50;;
73776;SDS011;62088;50.240;2.696;2023-02-04T00:12:35;31.83;;;14.85;;
73776;SDS011;62088;50.240;2.696;2023-02-04T00:15:02;26.33;;;12.20;;
73776;SDS011;62088;50.240;2.696;2023-02-04T00:17:30;33.33;;;15.07;;
73776;SDS011;62088;50.240;2.696;2023-02-04T00:19:57;31.83;;;14.65;;
73776;SDS011;62088;50.240;2.696;2023-02-04T00:22:24;29.25;;;15.35;;
73776;SDS011;62088;50.240;2.696;2023-02-04T00:24:53;36.75;;;15.38;;
73776;SDS011;62088;50.240;2.696;2023-02-04T00:27:21;30.48;;;15.00;;
73776;SDS011;62088;50.240;2.696;2023-02-04T00:29:48;32.15;;;15.68;;
73776;SDS011;62088;50.240;2.696;2023-02-04T00:32:15;29.48;;;12.95;;
73776;SDS011;62088;50.240;2.696;2023-02-04T00:34:42;25.88;;;14.68;;
73776;SDS011;62088;50.240;2.696;2023-02-04T00:37:09;29.25;;;15.05;;
73776;SDS011;62088;50.240;2.696;2023-02-04T00:39:36;27.25;;;12.32;;
73776;SDS011;62088;50.240;2.696;2023-02-04T00:42:04;34.42;;;15.05;;
73776;SDS011;62088;50.240;2.696;2023-02-04T00:44:34;31.98;;;14.82;;
73776;SDS011;62088;50.240;2.696;2023-02-04T00:47:02;29.65;;;13.82;;
73776;SDS011;62088;50.240;2.696;2023-02-04T00:49:29;24.45;;;12.05;;
73776;SDS011;62088;50.240;2.696;2023-02-04T00:51:57;32.30;;;15.52;;
73776;SDS011;62088;50.240;2.696;2023-02-04T00:54:24;30.17;;;14.70;;
73776;SDS011;62088;50.240;2.696;2023-02-04T00:56:52;36.13;;;14.98;;
73776;SDS011;62088;50.240;2.696;2023-02-04T00:59:19;32.15;;;15.55;;
73776;SDS011;62088;50.240;2.696;2023-02-04T01:01:46;40.70;;;14.77;;
73776;SDS011;62088;50.240;2.696;2023-02-04T01:04:13;28.02;;;12.27;;
73776;SDS011;62088;50.240;2.696;2023-02-04T01:06:40;30.27;;;13.55;;
73776;SDS011;62088;50.240;2.696;2023-02-04T01:09:08;33.88;;;15.60;;
73776;SDS011;62088;50.240;2.696;2023-02-04T01:11:35;35.28;;;15.75;;
73776;SDS011;62088;50.240;2.696;2023-02-04T01:14:03;29.40;;;14.63;;
73776;SDS011;62088;50.240;2.696;2023-02-04T01:16:30;36.75;;;15.00;;
73776;SDS011;62088;50.240;2.696;2023-02-04T01:18:57;34.88;;;15.38;;
73776;SDS011;62088;50.240;2.696;2023-02-04T01:21:25;30.38;;;13.00;;
73776;SDS011;62088;50.240;2.696;2023-02-04T01:23:52;29.85;;;14.93;;
73776;SDS011;62088;50.240;2.696;2023-02-04T01:26:20;29.65;;;14.82;;
73776;SDS011;62088;50.240;2.696;2023-02-04T01:28:47;31.65;;;14.40;;
73776;SDS011;62088;50.240;2.696;2023-02-04T01:31:15;30.08;;;13.98;;
73776;SDS011;62088;50.240;2.696;2023-02-04T01:33:43;34.65;;;15.50;;
73776;SDS011;62088;50.240;2.696;2023-02-04T01:36:10;33.78;;;14.52;;
73776;SDS011;62088;50.240;2.696;2023-02-04T01:38:38;29.27;;;14.40;;
73776;SDS011;62088;50.240;2.696;2023-02-04T01:41:05;33.95;;;14.10;;
73776;SDS011;62088;50.240;2.696;2023-02-04T01:43:32;24.55;;;12.40;;
73776;SDS011;62088;50.240;2.696;2023-02-04T01:46:00;25.67;;;12.50;;
73776;SDS011;62088;50.240;2.696;2023-02-04T01:48:28;23.33;;;11.55;;
73776;SDS011;62088;50.240;2.696;2023-02-04T01:51:03;34.95;;;15.00;;
73776;SDS011;62088;50.240;2.696;2023-02-04T01:53:33;28.42;;;14.05;;
73776;SDS011;62088;50.240;2.696;2023-02-04T01:56:01;31.15;;;13.85;;
73776;SDS011;62088;50.240;2.696;2023-02-04T01:58:40;28.05;;;12.15;;
73776;SDS011;62088;50.240;2.696;2023-02-04T02:01:14;32.97;;;13.27;;
73776;SDS011;62088;50.240;2.696;2023-02-04T02:03:58;29.42;;;14.02;;
73776;SDS011;62088;50.240;2.696;2023-02-04T02:06:26;25.35;;;13.70;;
73776;SDS011;62088;50.240;2.696;2023-02-04T02:08:54;21.70;;;11.40;;
73776;SDS011;62088;50.240;2.696;2023-02-04T02:11:21;26.08;;;13.95;;
73776;SDS011;62088;50.240;2.696;2023-02-04T02:13:48;27.95;;;14.23;;
73776;SDS011;62088;50.240;2.696;2023-02-04T02:16:15;27.67;;;11.30;;
73776;SDS011;62088;50.240;2.696;2023-02-04T02:18:44;27.50;;;12.10;;
73776;SDS011;62088;50.240;2.696;2023-02-04T02:21:12;27.33;;;13.18;;
73776;SDS011;62088;50.240;2.696;2023-02-04T02:23:45;25.27;;;13.45;;
73776;SDS011;62088;50.240;2.696;2023-02-04T02:26:18;27.67;;;13.82;;
73776;SDS011;62088;50.240;2.696;2023-02-04T02:28:47;26.25;;;13.75;;
73776;SDS011;62088;50.240;2.696;2023-02-04T02:31:15;26.08;;;14.20;;
73776;SDS011;62088;50.240;2.696;2023-02-04T02:33:45;25.80;;;13.63;;
73776;SDS011;62088;50.240;2.696;2023-02-04T02:36:14;23.63;;;14.40;;
73776;SDS011;62088;50.240;2.696;2023-02-04T02:38:42;31.42;;;13.93;;
73776;SDS011;62088;50.240;2.696;2023-02-04T02:41:09;24.58;;;14.18;;
73776;SDS011;62088;50.240;2.696;2023-02-04T02:43:36;27.10;;;14.20;;
73776;SDS011;62088;50.240;2.696;2023-02-04T02:46:03;26.42;;;13.25;;
73776;SDS011;62088;50.240;2.696;2023-02-04T02:48:31;23.63;;;13.77;;
73776;SDS011;62088;50.240;2.696;2023-02-04T02:50:59;24.35;;;12.05;;
73776;SDS011;62088;50.240;2.696;2023-02-04T02:53:26;26.40;;;13.88;;
73776;SDS011;62088;50.240;2.696;2023-02-04T02:55:54;21.98;;;14.00;;
73776;SDS011;62088;50.240;2.696;2023-02-04T02:58:32;21.23;;;13.90;;
73776;SDS011;62088;50.240;2.696;2023-02-04T03:01:03;26.08;;;14.70;;
73776;SDS011;62088;50.240;2.696;2023-02-04T03:03:34;22.83;;;13.98;;
73776;SDS011;62088;50.240;2.696;2023-02-04T03:06:06;26.83;;;12.48;;
73776;SDS011;62088;50.240;2.696;2023-02-04T03:08:40;23.38;;;11.68;;
73776;SDS011;62088;50.240;2.696;2023-02-04T03:11:07;20.58;;;12.88;;
73776;SDS011;62088;50.240;2.696;2023-02-04T03:13:35;26.45;;;14.05;;
73776;SDS011;62088;50.240;2.696;2023-02-04T03:16:02;23.95;;;12.85;;
73776;SDS011;62088;50.240;2.696;2023-02-04T03:18:31;25.13;;;14.48;;
73776;SDS011;62088;50.240;2.696;2023-02-04T03:21:00;27.13;;;14.55;;
73776;SDS011;62088;50.240;2.696;2023-02-04T03:23:30;27.00;;;13.90;;
73776;SDS011;62088;50.240;2.696;2023-02-04T03:26:00;27.55;;;15.05;;
73776;SDS011;62088;50.240;2.696;2023-02-04T03:28:29;28.13;;;15.82;;
73776;SDS011;62088;50.240;2.696;2023-02-04T03:30:57;28.92;;;15.23;;
73776;SDS011;62088;50.240;2.696;2023-02-04T03:33:25;27.17;;;14.68;;
73776;SDS011;62088;50.240;2.696;2023-02-04T03:35:57;23.67;;;14.60;;
73776;SDS011;62088;50.240;2.696;2023-02-04T03:38:24;24.60;;;14.43;;
73776;SDS011;62088;50.240;2.696;2023-02-04T03:40:51;24.67;;;14.73;;
73776;SDS011;62088;50.240;2.696;2023-02-04T03:43:18;25.48;;;14.95;;
73776;SDS011;62088;50.240;2.696;2023-02-04T03:45:45;29.50;;;15.60;;
73776;SDS011;62088;50.240;2.696;2023-02-04T03:48:12;22.13;;;13.77;;
73776;SDS011;62088;50.240;2.696;2023-02-04T03:50:39;24.15;;;14.98;;
73776;SDS011;62088;50.240;2.696;2023-02-04T03:53:07;26.00;;;12.32;;
73776;SDS011;62088;50.240;2.696;2023-02-04T03:55:35;24.73;;;13.13;;
73776;SDS011;62088;50.240;2.696;2023-02-04T03:58:02;28.08;;;15.38;;
73776;SDS011;62088;50.240;2.696;2023-02-04T04:00:30;24.13;;;14.45;;
73776;SDS011;62088;50.240;2.696;2023-02-04T04:02:58;23.38;;;12.77;;
73776;SDS011;62088;50.240;2.696;2023-02-04T04:05:25;23.60;;;14.32;;
73776;SDS011;62088;50.240;2.696;2023-02-04T04:07:54;22.15;;;13.45;;
73776;SDS011;62088;50.240;2.696;2023-02-04T04:10:21;25.02;;;13.73;;
73776;SDS011;62088;50.240;2.696;2023-02-04T04:12:48;19.55;;;13.02;;
73776;SDS011;62088;50.240;2.696;2023-02-04T04:15:15;20.98;;;11.15;;
73776;SDS011;62088;50.240;2.696;2023-02-04T04:17:43;26.20;;;13.27;;
73776;SDS011;62088;50.240;2.696;2023-02-04T04:20:10;26.70;;;14.85;;
73776;SDS011;62088;50.240;2.696;2023-02-04T04:22:37;24.02;;;13.60;;
73776;SDS011;62088;50.240;2.696;2023-02-04T04:25:05;26.88;;;15.57;;
73776;SDS011;62088;50.240;2.696;2023-02-04T04:27:32;26.95;;;14.63;;
73776;SDS011;62088;50.240;2.696;2023-02-04T04:30:00;24.95;;;13.77;;
73776;SDS011;62088;50.240;2.696;2023-02-04T04:32:27;31.13;;;14.93;;
73776;SDS011;62088;50.240;2.696;2023-02-04T04:34:54;24.85;;;13.77;;
73776;SDS011;62088;50.240;2.696;2023-02-04T04:37:21;22.23;;;13.30;;
73776;SDS011;62088;50.240;2.696;2023-02-04T04:39:48;24.13;;;12.65;;
73776;SDS011;62088;50.240;2.696;2023-02-04T04:42:15;23.88;;;14.13;;
73776;SDS011;62088;50.240;2.696;2023-02-04T04:44:42;21.85;;;11.35;;
73776;SDS011;62088;50.240;2.696;2023-02-04T04:47:09;25.27;;;12.50;;
73776;SDS011;62088;50.240;2.696;2023-02-04T04:49:36;27.73;;;14.07;;
73776;SDS011;62088;50.240;2.696;2023-02-04T04:52:03;22.85;;;12.93;;
73776;SDS011;62088;50.240;2.696;2023-02-04T04:54:30;29.95;;;15.48;;
73776;SDS011;62088;50.240;2.696;2023-02-04T04:56:57;20.58;;;12.77;;
73776;SDS011;62088;50.240;2.696;2023-02-04T04:59:24;24.30;;;14.52;;
73776;SDS011;62088;50.240;2.696;2023-02-04T05:01:51;22.70;;;13.48;;
73776;SDS011;62088;50.240;2.696;2023-02-04T05:04:18;20.52;;;11.15;;
73776;SDS011;62088;50.240;2.696;2023-02-04T05:06:45;25.10;;;15.10;;
73776;SDS011;62088;50.240;2.696;2023-02-04T05:09:12;24.23;;;14.50;;
73776;SDS011;62088;50.240;2.696;2023-02-04T05:11:40;24.13;;;12.57;;
73776;SDS011;62088;50.240;2.696;2023-02-04T05:14:07;28.13;;;13.73;;
73776;SDS011;62088;50.240;2.696;2023-02-04T05:16:34;29.55;;;15.25;;
73776;SDS011;62088;50.240;2.696;2023-02-04T05:19:01;24.17;;;13.75;;
73776;SDS011;62088;50.240;2.696;2023-02-04T05:21:28;22.02;;;14.57;;
73776;SDS011;62088;50.240;2.696;2023-02-04T05:23:55;28.40;;;14.95;;
73776;SDS011;62088;50.240;2.696;2023-02-04T05:26:22;19.85;;;11.88;;
73776;SDS011;62088;50.240;2.696;2023-02-04T05:28:56;23.80;;;14.23;;
73776;SDS011;62088;50.240;2.696;2023-02-04T05:31:25;25.83;;;13.57;;
73776;SDS011;62088;50.240;2.696;2023-02-04T05:33:53;25.73;;;14.55;;
73776;SDS011;62088;50.240;2.696;2023-02-04T05:36:20;30.60;;;16.27;;
73776;SDS011;62088;50.240;2.696;2023-02-04T05:38:47;22.80;;;14.48;;
73776;SDS011;62088;50.240;2.696;2023-02-04T05:41:14;22.05;;;14.07;;
73776;SDS011;62088;50.240;2.696;2023-02-04T05:43:41;29.42;;;16.73;;
73776;SDS011;62088;50.240;2.696;2023-02-04T05:46:08;33.75;;;15.55;;
73776;SDS011;62088;50.240;2.696;2023-02-04T05:48:36;25.55;;;14.52;;
73776;SDS011;62088;50.240;2.696;2023-02-04T05:51:03;26.77;;;15.10;;
73776;SDS011;62088;50.240;2.696;2023-02-04T05:53:30;26.38;;;15.23;;
73776;SDS011;62088;50.240;2.696;2023-02-04T05:55:57;22.70;;;14.95;;
73776;SDS011;62088;50.240;2.696;2023-02-04T05:58:24;31.67;;;16.75;;
73776;SDS011;62088;50.240;2.696;2023-02-04T06:00:51;21.98;;;13.63;;
73776;SDS011;62088;50.240;2.696;2023-02-04T06:03:18;29.52;;;15.40;;
73776;SDS011;62088;50.240;2.696;2023-02-04T06:05:46;26.48;;;15.50;;
73776;SDS011;62088;50.240;2.696;2023-02-04T06:08:13;24.08;;;15.48;;
73776;SDS011;62088;50.240;2.696;2023-02-04T06:10:42;25.77;;;15.15;;
73776;SDS011;62088;50.240;2.696;2023-02-04T06:13:09;27.25;;;14.10;;
73776;SDS011;62088;50.240;2.696;2023-02-04T06:15:36;26.20;;;16.73;;
73776;SDS011;62088;50.240;2.696;2023-02-04T06:18:03;27.30;;;13.80;;
73776;SDS011;62088;50.240;2.696;2023-02-04T06:20:30;26.40;;;15.80;;
73776;SDS011;62088;50.240;2.696;2023-02-04T06:22:58;28.70;;;16.10;;
73776;SDS011;62088;50.240;2.696;2023-02-04T06:25:25;26.10;;;15.90;;
73776;SDS011;62088;50.240;2.696;2023-02-04T06:27:52;24.75;;;15.70;;
73776;SDS011;62088;50.240;2.696;2023-02-04T06:30:19;29.15;;;14.50;;
73776;SDS011;62088;50.240;2.696;2023-02-04T06:32:46;32.83;;;17.23;;
73776;SDS011;62088;50.240;2.696;2023-02-04T06:35:13;30.92;;;17.05;;
73776;SDS011;62088;50.240;2.696;2023-02-04T06:37:42;27.48;;;15.80;;
73776;SDS011;62088;50.240;2.696;2023-02-04T06:40:10;23.85;;;13.55;;
73776;SDS011;62088;50.240;2.696;2023-02-04T06:42:37;25.33;;;13.25;;
73776;SDS011;62088;50.240;2.696;2023-02-04T06:45:04;29.25;;;17.15;;
73776;SDS011;62088;50.240;2.696;2023-02-04T06:47:32;32.05;;;16.95;;
73776;SDS011;62088;50.240;2.696;2023-02-04T06:49:59;27.77;;;12.80;;
73776;SDS011;62088;50.240;2.696;2023-02-04T06:52:26;24.38;;;13.20;;
73776;SDS011;62088;50.240;2.696;2023-02-04T06:54:53;24.30;;;15.52;;
73776;SDS011;62088;50.240;2.696;2023-02-04T06:57:20;29.00;;;16.98;;
73776;SDS011;62088;50.240;2.696;2023-02-04T06:59:47;25.25;;;13.02;;
73776;SDS011;62088;50.240;2.696;2023-02-04T07:02:14;30.38;;;17.10;;
73776;SDS011;62088;50.240;2.696;2023-02-04T07:04:41;26.48;;;15.02;;
73776;SDS011;62088;50.240;2.696;2023-02-04T07:07:13;21.48;;;12.85;;
73776;SDS011;62088;50.240;2.696;2023-02-04T07:09:40;24.27;;;15.75;;
73776;SDS011;62088;50.240;2.696;2023-02-04T07:12:07;29.40;;;12.98;;
73776;SDS011;62088;50.240;2.696;2023-02-04T07:14:36;28.08;;;16.15;;
73776;SDS011;62088;50.240;2.696;2023-02-04T07:17:03;30.23;;;16.13;;
73776;SDS011;62088;50.240;2.696;2023-02-04T07:19:30;31.40;;;18.52;;
73776;SDS011;62088;50.240;2.696;2023-02-04T07:21:57;27.70;;;15.45;;
73776;SDS011;62088;50.240;2.696;2023-02-04T07:24:24;28.83;;;17.33;;
73776;SDS011;62088;50.240;2.696;2023-02-04T07:26:51;28.65;;;18.33;;
73776;SDS011;62088;50.240;2.696;2023-02-04T07:29:18;27.67;;;17.90;;
73776;SDS011;62088;50.240;2.696;2023-02-04T07:31:51;31.08;;;18.73;;
73776;SDS011;62088;50.240;2.696;2023-02-04T07:34:19;26.15;;;17.15;;
73776;SDS011;62088;50.240;2.696;2023-02-04T07:36:46;23.02;;;13.20;;
73776;SDS011;62088;50.240;2.696;2023-02-04T07:39:13;32.03;;;17.63;;
73776;SDS011;62088;50.240;2.696;2023-02-04T07:41:41;30.98;;;15.18;;
73776;SDS011;62088;50.240;2.696;2023-02-04T07:44:10;28.02;;;17.35;;
73776;SDS011;62088;50.240;2.696;2023-02-04T07:46:37;27.88;;;17.98;;
73776;SDS011;62088;50.240;2.696;2023-02-04T07:49:04;28.15;;;16.23;;
73776;SDS011;62088;50.240;2.696;2023-02-04T07:51:31;31.80;;;19.17;;
73776;SDS011;62088;50.240;2.696;2023-02-04T07:53:58;32.13;;;18.20;;
73776;SDS011;62088;50.240;2.696;2023-02-04T07:56:25;27.17;;;15.63;;
73776;SDS011;62088;50.240;2.696;2023-02-04T07:58:52;28.90;;;18.88;;
73776;SDS011;62088;50.240;2.696;2023-02-04T08:01:19;28.15;;;17.75;;
73776;SDS011;62088;50.240;2.696;2023-02-04T08:03:46;31.42;;;19.58;;
73776;SDS011;62088;50.240;2.696;2023-02-04T08:06:13;31.77;;;17.50;;
73776;SDS011;62088;50.240;2.696;2023-02-04T08:08:40;35.53;;;20.30;;
73776;SDS011;62088;50.240;2.696;2023-02-04T08:11:07;30.90;;;18.95;;
73776;SDS011;62088;50.240;2.696;2023-02-04T08:13:34;29.88;;;19.00;;
73776;SDS011;62088;50.240;2.696;2023-02-04T08:16:01;33.72;;;19.60;;
73776;SDS011;62088;50.240;2.696;2023-02-04T08:18:29;30.73;;;20.25;;
73776;SDS011;62088;50.240;2.696;2023-02-04T08:20:56;32.35;;;20.48;;
73776;SDS011;62088;50.240;2.696;2023-02-04T08:23:24;33.65;;;21.23;;
73776;SDS011;62088;50.240;2.696;2023-02-04T08:25:51;32.55;;;20.10;;
73776;SDS011;62088;50.240;2.696;2023-02-04T08:28:18;28.02;;;15.93;;
73776;SDS011;62088;50.240;2.696;2023-02-04T08:30:45;30.75;;;20.08;;
73776;SDS011;62088;50.240;2.696;2023-02-04T08:33:12;32.70;;;19.27;;
73776;SDS011;62088;50.240;2.696;2023-02-04T08:35:40;29.70;;;19.38;;
73776;SDS011;62088;50.240;2.696;2023-02-04T08:38:07;33.25;;;20.88;;
73776;SDS011;62088;50.240;2.696;2023-02-04T08:40:34;31.73;;;20.08;;
73776;SDS011;62088;50.240;2.696;2023-02-04T08:43:01;26.33;;;15.93;;
73776;SDS011;62088;50.240;2.696;2023-02-04T08:45:28;26.63;;;18.35;;
73776;SDS011;62088;50.240;2.696;2023-02-04T08:47:55;31.33;;;19.83;;
73776;SDS011;62088;50.240;2.696;2023-02-04T08:50:23;24.38;;;15.38;;
73776;SDS011;62088;50.240;2.696;2023-02-04T08:52:50;29.77;;;17.67;;
73776;SDS011;62088;50.240;2.696;2023-02-04T08:55:17;28.67;;;16.05;;
73776;SDS011;62088;50.240;2.696;2023-02-04T08:57:44;33.75;;;18.45;;
73776;SDS011;62088;50.240;2.696;2023-02-04T09:00:11;26.90;;;17.42;;
73776;SDS011;62088;50.240;2.696;2023-02-04T09:02:38;29.05;;;15.40;;
73776;SDS011;62088;50.240;2.696;2023-02-04T09:05:05;27.98;;;16.92;;
73776;SDS011;62088;50.240;2.696;2023-02-04T09:07:33;27.02;;;17.13;;
73776;SDS011;62088;50.240;2.696;2023-02-04T09:10:00;23.80;;;16.70;;
73776;SDS011;62088;50.240;2.696;2023-02-04T09:12:27;27.38;;;17.50;;
73776;SDS011;62088;50.240;2.696;2023-02-04T09:14:54;23.60;;;15.50;;
73776;SDS011;62088;50.240;2.696;2023-02-04T09:17:21;29.92;;;15.95;;
73776;SDS011;62088;50.240;2.696;2023-02-04T09:19:48;22.55;;;12.90;;
73776;SDS011;62088;50.240;2.696;2023-02-04T09:22:15;22.95;;;15.25;;
73776;SDS011;62088;50.240;2.696;2023-02-04T09:24:42;30.35;;;15.15;;
73776;SDS011;62088;50.240;2.696;2023-02-04T09:27:09;25.08;;;15.27;;
73776;SDS011;62088;50.240;2.696;2023-02-04T09:29:36;23.88;;;13.85;;
73776;SDS011;62088;50.240;2.696;2023-02-04T09:32:03;26.50;;;15.13;;
73776;SDS011;62088;50.240;2.696;2023-02-04T09:34:30;21.45;;;12.68;;
73776;SDS011;62088;50.240;2.696;2023-02-04T09:36:57;21.35;;;11.23;;
73776;SDS011;62088;50.240;2.696;2023-02-04T09:39:24;20.90;;;13.70;;
73776;SDS011;62088;50.240;2.696;2023-02-04T09:41:51;21.13;;;12.75;;
73776;SDS011;62088;50.240;2.696;2023-02-04T09:44:20;25.60;;;13.18;;
73776;SDS011;62088;50.240;2.696;2023-02-04T09:46:50;19.13;;;11.80;;
73776;SDS011;62088;50.240;2.696;2023-02-04T09:49:20;20.08;;;12.52;;
73776;SDS011;62088;50.240;2.696;2023-02-04T09:51:47;22.95;;;11.23;;
73776;SDS011;62088;50.240;2.696;2023-02-04T09:54:16;16.63;;;10.98;;
73776;SDS011;62088;50.240;2.696;2023-02-04T09:56:45;19.25;;;11.25;;
73776;SDS011;62088;50.240;2.696;2023-02-04T09:59:17;21.15;;;10.73;;
73776;SDS011;62088;50.240;2.696;2023-02-04T10:01:47;17.52;;;10.50;;
73776;SDS011;62088;50.240;2.696;2023-02-04T10:04:21;17.15;;;10.38;;
73776;SDS011;62088;50.240;2.696;2023-02-04T10:06:48;19.25;;;9.85;;
73776;SDS011;62088;50.240;2.696;2023-02-04T10:09:15;17.25;;;9.10;;
73776;SDS011;62088;50.240;2.696;2023-02-04T10:11:43;13.93;;;8.60;;
73776;SDS011;62088;50.240;2.696;2023-02-04T10:14:15;15.95;;;8.30;;
73776;SDS011;62088;50.240;2.696;2023-02-04T10:16:47;20.27;;;8.90;;
73776;SDS011;62088;50.240;2.696;2023-02-04T10:19:25;16.00;;;7.88;;
73776;SDS011;62088;50.240;2.696;2023-02-04T10:21:54;17.23;;;8.15;;
73776;SDS011;62088;50.240;2.696;2023-02-04T10:24:22;13.40;;;7.30;;
73776;SDS011;62088;50.240;2.696;2023-02-04T10:26:51;14.68;;;7.10;;
73776;SDS011;62088;50.240;2.696;2023-02-04T10:29:20;13.93;;;6.95;;
73776;SDS011;62088;50.240;2.696;2023-02-04T10:31:51;12.77;;;6.43;;
73776;SDS011;62088;50.240;2.696;2023-02-04T10:36:59;13.02;;;7.03;;
73776;SDS011;62088;50.240;2.696;2023-02-04T10:39:42;12.48;;;7.53;;
73776;SDS011;62088;50.240;2.696;2023-02-04T10:42:19;10.52;;;6.75;;
73776;SDS011;62088;50.240;2.696;2023-02-04T10:44:48;15.40;;;8.05;;
73776;SDS011;62088;50.240;2.696;2023-02-04T10:47:16;14.50;;;9.20;;
73776;SDS011;62088;50.240;2.696;2023-02-04T10:49:50;19.08;;;13.20;;
73776;SDS011;62088;50.240;2.696;2023-02-04T10:52:34;22.67;;;13.60;;
73776;SDS011;62088;50.240;2.696;2023-02-04T10:55:04;12.98;;;7.65;;
73776;SDS011;62088;50.240;2.696;2023-02-04T10:57:34;9.95;;;5.88;;
73776;SDS011;62088;50.240;2.696;2023-02-04T11:00:05;10.90;;;5.20;;
73776;SDS011;62088;50.240;2.696;2023-02-04T11:02:47;12.80;;;5.40;;
73776;SDS011;62088;50.240;2.696;2023-02-04T11:08:00;11.30;;;5.10;;
73776;SDS011;62088;50.240;2.696;2023-02-04T11:10:29;13.52;;;5.28;;
73776;SDS011;62088;50.240;2.696;2023-02-04T11:13:03;13.77;;;4.85;;
73776;SDS011;62088;50.240;2.696;2023-02-04T11:20:47;10.38;;;4.38;;
73776;SDS011;62088;50.240;2.696;2023-02-04T11:27:04;9.13;;;4.18;;
73776;SDS011;62088;50.240;2.696;2023-02-04T11:36:54;13.32;;;4.55;;
73776;SDS011;62088;50.240;2.696;2023-02-04T11:39:23;7.53;;;3.58;;
73776;SDS011;62088;50.240;2.696;2023-02-04T11:42:04;8.48;;;3.92;;
73776;SDS011;62088;50.240;2.696;2023-02-04T11:44:39;8.90;;;3.40;;
73776;SDS011;62088;50.240;2.696;2023-02-04T11:47:06;7.50;;;3.90;;
73776;SDS011;62088;50.240;2.696;2023-02-04T11:49:35;8.00;;;3.22;;
73776;SDS011;62088;50.240;2.696;2023-02-04T11:52:03;10.00;;;3.20;;
73776;SDS011;62088;50.240;2.696;2023-02-04T11:54:34;11.98;;;3.67;;
73776;SDS011;62088;50.240;2.696;2023-02-04T11:57:02;7.68;;;3.17;;
73776;SDS011;62088;50.240;2.696;2023-02-04T11:59:29;10.65;;;3.85;;
73776;SDS011;62088;50.240;2.696;2023-02-04T12:02:05;7.05;;;3.17;;
73776;SDS011;62088;50.240;2.696;2023-02-04T12:04:49;9.95;;;3.85;;
73776;SDS011;62088;50.240;2.696;2023-02-04T12:07:25;10.77;;;4.07;;
73776;SDS011;62088;50.240;2.696;2023-02-04T12:09:54;12.07;;;3.83;;
73776;SDS011;62088;50.240;2.696;2023-02-04T12:12:26;7.47;;;3.38;;
73776;SDS011;62088;50.240;2.696;2023-02-04T12:15:03;9.57;;;3.53;;
73776;SDS011;62088;50.240;2.696;2023-02-04T12:17:39;7.03;;;3.15;;
73776;SDS011;62088;50.240;2.696;2023-02-04T12:20:10;8.50;;;3.72;;
73776;SDS011;62088;50.240;2.696;2023-02-04T12:22:39;8.30;;;3.40;;
73776;SDS011;62088;50.240;2.696;2023-02-04T12:25:06;7.85;;;3.28;;
73776;SDS011;62088;50.240;2.696;2023-02-04T12:27:33;8.73;;;3.63;;
73776;SDS011;62088;50.240;2.696;2023-02-04T12:30:00;7.57;;;3.08;;
73776;SDS011;62088;50.240;2.696;2023-02-04T12:32:27;7.65;;;3.33;;
73776;SDS011;62088;50.240;2.696;2023-02-04T12:34:54;7.63;;;3.00;;
73776;SDS011;62088;50.240;2.696;2023-02-04T12:37:21;6.32;;;2.85;;
73776;SDS011;62088;50.240;2.696;2023-02-04T12:39:48;9.35;;;3.38;;
73776;SDS011;62088;50.240;2.696;2023-02-04T12:42:15;6.60;;;3.30;;
73776;SDS011;62088;50.240;2.696;2023-02-04T12:44:42;7.63;;;3.25;;
73776;SDS011;62088;50.240;2.696;2023-02-04T12:47:09;9.20;;;3.25;;
73776;SDS011;62088;50.240;2.696;2023-02-04T12:49:36;8.50;;;3.22;;
73776;SDS011;62088;50.240;2.696;2023-02-04T12:52:04;7.43;;;3.45;;
73776;SDS011;62088;50.240;2.696;2023-02-04T12:54:31;11.13;;;3.20;;
73776;SDS011;62088;50.240;2.696;2023-02-04T12:56:58;11.57;;;3.58;;
73776;SDS011;62088;50.240;2.696;2023-02-04T12:59:25;9.82;;;3.40;;
73776;SDS011;62088;50.240;2.696;2023-02-04T13:01:52;9.07;;;3.20;;
73776;SDS011;62088;50.240;2.696;2023-02-04T13:04:19;8.50;;;3.08;;
73776;SDS011;62088;50.240;2.696;2023-02-04T13:06:46;8.75;;;3.15;;
73776;SDS011;62088;50.240;2.696;2023-02-04T13:09:13;6.97;;;3.13;;
73776;SDS011;62088;50.240;2.696;2023-02-04T13:11:40;8.52;;;2.88;;
73776;SDS011;62088;50.240;2.696;2023-02-04T13:14:07;12.43;;;3.60;;
73776;SDS011;62088;50.240;2.696;2023-02-04T13:16:34;6.80;;;3.22;;
73776;SDS011;62088;50.240;2.696;2023-02-04T13:19:01;8.20;;;2.80;;
73776;SDS011;62088;50.240;2.696;2023-02-04T13:21:28;6.10;;;2.90;;
73776;SDS011;62088;50.240;2.696;2023-02-04T13:23:56;8.93;;;3.13;;
73776;SDS011;62088;50.240;2.696;2023-02-04T13:26:25;7.68;;;2.95;;
73776;SDS011;62088;50.240;2.696;2023-02-04T13:28:52;8.07;;;3.40;;
73776;SDS011;62088;50.240;2.696;2023-02-04T13:31:19;8.60;;;3.22;;
73776;SDS011;62088;50.240;2.696;2023-02-04T13:33:46;11.02;;;3.72;;
73776;SDS011;62088;50.240;2.696;2023-02-04T13:36:13;7.72;;;3.20;;
73776;SDS011;62088;50.240;2.696;2023-02-04T13:38:40;7.10;;;3.28;;
73776;SDS011;62088;50.240;2.696;2023-02-04T13:41:07;8.50;;;3.45;;
73776;SDS011;62088;50.240;2.696;2023-02-04T13:43:34;6.07;;;3.40;;
73776;SDS011;62088;50.240;2.696;2023-02-04T13:46:01;6.53;;;3.00;;
73776;SDS011;62088;50.240;2.696;2023-02-04T13:48:30;6.97;;;3.28;;
73776;SDS011;62088;50.240;2.696;2023-02-04T13:50:57;9.50;;;3.85;;
73776;SDS011;62088;50.240;2.696;2023-02-04T13:53:24;10.65;;;3.78;;
73776;SDS011;62088;50.240;2.696;2023-02-04T13:55:56;6.13;;;3.40;;
73776;SDS011;62088;50.240;2.696;2023-02-04T13:58:23;8.48;;;4.00;;
73776;SDS011;62088;50.240;2.696;2023-02-04T14:00:50;7.70;;;3.83;;
73776;SDS011;62088;50.240;2.696;2023-02-04T14:03:23;9.27;;;3.50;;
73776;SDS011;62088;50.240;2.696;2023-02-04T14:05:51;7.38;;;4.30;;
73776;SDS011;62088;50.240;2.696;2023-02-04T14:08:18;6.43;;;3.50;;
73776;SDS011;62088;50.240;2.696;2023-02-04T14:10:46;9.63;;;3.95;;
73776;SDS011;62088;50.240;2.696;2023-02-04T14:13:13;6.88;;;3.30;;
73776;SDS011;62088;50.240;2.696;2023-02-04T14:15:40;8.45;;;3.92;;
73776;SDS011;62088;50.240;2.696;2023-02-04T14:18:08;6.90;;;3.55;;
73776;SDS011;62088;50.240;2.696;2023-02-04T14:20:36;6.43;;;3.17;;
73776;SDS011;62088;50.240;2.696;2023-02-04T14:23:04;9.27;;;3.65;;
73776;SDS011;62088;50.240;2.696;2023-02-04T14:25:31;7.00;;;3.75;;
73776;SDS011;62088;50.240;2.696;2023-02-04T14:27:58;6.93;;;3.78;;
73776;SDS011;62088;50.240;2.696;2023-02-04T14:30:26;9.48;;;4.38;;
73776;SDS011;62088;50.240;2.696;2023-02-04T14:32:54;10.10;;;4.40;;
73776;SDS011;62088;50.240;2.696;2023-02-04T14:35:22;7.40;;;3.53;;
73776;SDS011;62088;50.240;2.696;2023-02-04T14:37:49;9.50;;;4.43;;
73776;SDS011;62088;50.240;2.696;2023-02-04T14:40:17;7.78;;;4.40;;
73776;SDS011;62088;50.240;2.696;2023-02-04T14:42:45;10.10;;;4.72;;
73776;SDS011;62088;50.240;2.696;2023-02-04T14:45:12;9.00;;;5.38;;
73776;SDS011;62088;50.240;2.696;2023-02-04T14:47:40;8.13;;;4.60;;
73776;SDS011;62088;50.240;2.696;2023-02-04T14:50:09;10.32;;;4.97;;
73776;SDS011;62088;50.240;2.696;2023-02-04T14:52:38;9.20;;;5.35;;
73776;SDS011;62088;50.240;2.696;2023-02-04T14:55:06;10.55;;;5.50;;